createdAt,value
2022-11-04T00:00:31.317Z,0.00
2022-11-04T00:01:02.285Z,0.00
2022-11-04T00:01:32.480Z,0.00
2022-11-04T00:02:03.393Z,0.00
2022-11-04T00:02:34.595Z,0.00
2022-11-04T00:03:05.781Z,0.00
2022-11-04T00:03:37.587Z,0.00
2022-11-04T00:04:08.645Z,0.00
2022-11-04T00:04:38.739Z,0.00
2022-11-04T00:05:10.043Z,0.00
2022-11-04T00:05:40.241Z,0.00
2022-11-04T00:06:11.720Z,0.00
2022-11-04T00:06:42.772Z,0.00
2022-11-04T00:07:13.672Z,0.00
2022-11-04T00:07:44.284Z,0.00
2022-11-04T00:08:15.276Z,0.00
2022-11-04T00:08:46.536Z,0.00
2022-11-04T00:09:18.550Z,0.00
2022-11-04T00:09:48.847Z,0.00
2022-11-04T00:10:19.594Z,0.00
2022-11-04T00:10:50.643Z,0.00
2022-11-04T00:11:22.041Z,0.00
2022-11-04T00:11:53.294Z,0.00
2022-11-04T00:12:23.550Z,0.00
2022-11-04T00:12:55.288Z,0.00
2022-11-04T00:13:25.331Z,0.00
2022-11-04T00:13:59.603Z,0.00
2022-11-04T00:14:28.774Z,0.00
2022-11-04T00:14:59.581Z,0.00
2022-11-04T00:15:29.657Z,0.00
2022-11-04T00:16:00.660Z,0.00
2022-11-04T00:16:31.882Z,0.00
2022-11-04T00:17:33.744Z,0.00
2022-11-04T00:18:04.448Z,0.00
2022-11-04T00:18:35.305Z,0.00
2022-11-04T00:19:06.314Z,0.00
2022-11-04T00:19:39.362Z,0.00
2022-11-04T00:20:09.410Z,0.00
2022-11-04T00:20:39.458Z,0.00
2022-11-04T00:21:10.599Z,0.00
2022-11-04T00:21:41.693Z,0.00
2022-11-04T00:22:22.016Z,0.00
2022-11-04T00:22:43.522Z,0.00
2022-11-04T00:23:14.704Z,0.00
2022-11-04T00:23:45.411Z,0.00
2022-11-04T00:24:49.054Z,0.00
2022-11-04T00:25:18.972Z,0.00
2022-11-04T00:25:49.719Z,0.00
2022-11-04T00:26:20.914Z,0.00
2022-11-04T00:26:51.750Z,0.00
2022-11-04T00:27:22.557Z,0.00
2022-11-04T00:27:53.673Z,0.00
2022-11-04T00:28:24.377Z,0.00
2022-11-04T00:28:55.544Z,0.00
2022-11-04T00:29:26.438Z,0.00
2022-11-04T00:29:58.884Z,0.00
2022-11-04T00:30:29.681Z,0.00
2022-11-04T00:30:59.833Z,0.00
2022-11-04T00:31:30.807Z,0.00
2022-11-04T00:32:02.077Z,0.00
2022-11-04T00:32:32.758Z,0.00
2022-11-04T00:33:03.652Z,0.00
2022-11-04T00:33:34.846Z,0.00
2022-11-04T00:34:05.529Z,0.00
2022-11-04T00:34:36.877Z,0.00
2022-11-04T00:35:09.200Z,0.00
2022-11-04T00:35:39.170Z,0.00
2022-11-04T00:36:09.804Z,0.00
2022-11-04T00:36:40.693Z,0.00
2022-11-04T00:37:12.073Z,0.00
2022-11-04T00:37:42.671Z,0.00
2022-11-04T00:38:13.813Z,0.00
2022-11-04T00:38:44.604Z,0.00
2022-11-04T00:39:15.667Z,0.00
2022-11-04T00:39:46.858Z,0.00
2022-11-04T00:40:19.769Z,0.00
2022-11-04T00:40:49.208Z,0.00
2022-11-04T00:41:19.849Z,0.00
2022-11-04T00:41:50.854Z,0.00
2022-11-04T00:42:21.942Z,0.00
2022-11-04T00:42:52.857Z,0.00
2022-11-04T00:43:24.612Z,0.00
2022-11-04T00:43:54.677Z,0.00
2022-11-04T00:44:26.797Z,0.00
2022-11-04T00:44:56.542Z,0.00
2022-11-04T00:45:30.552Z,0.00
2022-11-04T00:45:59.805Z,0.00
2022-11-04T00:46:30.046Z,0.00
2022-11-04T00:47:00.790Z,0.00
2022-11-04T00:47:32.311Z,0.00
2022-11-04T00:48:02.792Z,0.00
2022-11-04T00:48:33.746Z,0.00
2022-11-04T00:49:04.712Z,0.00
2022-11-04T00:49:35.492Z,0.00
2022-11-04T00:50:07.116Z,0.00
2022-11-04T00:50:38.824Z,0.00
2022-11-04T00:51:09.894Z,0.00
2022-11-04T00:51:39.851Z,0.00
2022-11-04T00:52:10.578Z,0.00
2022-11-04T00:52:51.917Z,0.00
2022-11-04T00:53:12.822Z,0.00
2022-11-04T00:54:14.436Z,0.00
2022-11-04T00:54:45.947Z,0.00
2022-11-04T00:55:16.615Z,0.00
2022-11-04T00:55:48.943Z,0.00
2022-11-04T00:56:19.737Z,0.00
2022-11-04T00:56:49.974Z,0.00
2022-11-04T00:57:21.150Z,0.00
2022-11-04T00:57:51.663Z,0.00
2022-11-04T00:58:22.699Z,0.00
2022-11-04T00:58:53.999Z,0.00
2022-11-04T00:59:24.617Z,0.00
2022-11-04T00:59:55.748Z,0.00
2022-11-04T01:00:26.662Z,0.00
2022-11-04T01:00:59.633Z,0.00
2022-11-04T01:01:30.117Z,0.00
2022-11-04T01:02:00.483Z,0.00
2022-11-04T01:02:31.088Z,0.00
2022-11-04T01:03:02.067Z,0.00
2022-11-04T01:03:32.628Z,0.00
2022-11-04T01:04:03.449Z,0.00
2022-11-04T01:04:34.904Z,0.00
2022-11-04T01:05:05.724Z,0.00
2022-11-04T01:05:36.591Z,0.00
2022-11-04T01:06:08.729Z,0.00
2022-11-04T01:06:39.980Z,0.00
2022-11-04T01:07:10.143Z,0.00
2022-11-04T01:07:43.522Z,0.00
2022-11-04T01:11:26.663Z,0.00
2022-11-04T01:11:57.267Z,0.00
2022-11-04T01:13:40.074Z,0.00
2022-11-04T01:13:59.428Z,0.00
2022-11-04T01:14:24.332Z,0.00
2022-11-04T01:14:57.890Z,0.00
2022-11-04T01:15:33.030Z,0.00
2022-11-04T01:16:02.448Z,0.00
2022-11-04T01:17:09.714Z,0.00
2022-11-04T01:17:34.859Z,0.00
2022-11-04T01:18:13.639Z,0.00
2022-11-04T01:18:49.542Z,0.00
2022-11-04T01:19:05.066Z,0.00
2022-11-04T01:19:35.664Z,0.00
2022-11-04T01:20:06.544Z,0.00
2022-11-04T01:20:36.189Z,0.00
2022-11-04T01:21:07.420Z,0.00
2022-11-04T01:21:38.419Z,0.00
2022-11-04T01:22:09.273Z,0.00
2022-11-04T01:22:40.425Z,0.00
2022-11-04T01:23:12.313Z,0.00
2022-11-04T01:23:43.477Z,0.00
2022-11-04T01:24:15.046Z,0.00
2022-11-04T01:24:44.793Z,0.00
2022-11-04T01:25:15.711Z,0.00
2022-11-04T01:25:46.057Z,0.00
2022-11-04T01:26:17.520Z,0.00
2022-11-04T01:26:48.067Z,0.00
2022-11-04T01:27:18.929Z,0.00
2022-11-04T01:27:52.040Z,0.00
2022-11-04T01:28:38.384Z,0.00
2022-11-04T01:28:56.059Z,0.00
2022-11-04T01:29:24.285Z,0.00
2022-11-04T01:29:54.852Z,0.00
2022-11-04T01:30:25.788Z,0.00
2022-11-04T01:30:56.847Z,0.00
2022-11-04T01:31:27.539Z,0.00
2022-11-04T01:31:58.619Z,0.00
2022-11-04T01:32:29.411Z,0.00
2022-11-04T01:32:59.852Z,0.00
2022-11-04T01:33:31.950Z,0.00
2022-11-04T01:34:03.529Z,0.00
2022-11-04T01:34:35.973Z,0.00
2022-11-04T01:35:04.932Z,0.00
2022-11-04T01:35:35.468Z,0.00
2022-11-04T01:36:06.380Z,0.00
2022-11-04T01:36:37.019Z,0.00
2022-11-04T01:37:09.510Z,0.00
2022-11-04T01:37:40.065Z,0.00
2022-11-04T01:38:11.246Z,0.00
2022-11-04T01:38:55.239Z,0.00
2022-11-04T01:39:13.561Z,0.00
2022-11-04T01:39:44.089Z,0.00
2022-11-04T01:40:15.102Z,0.00
2022-11-04T01:40:45.432Z,0.00
2022-11-04T01:41:17.464Z,0.00
2022-11-04T01:41:47.276Z,0.00
2022-11-04T01:42:18.215Z,0.00
2022-11-04T01:42:49.074Z,0.00
2022-11-04T01:43:24.163Z,0.00
2022-11-04T01:43:52.244Z,0.00
2022-11-04T01:44:23.810Z,0.00
2022-11-04T01:44:54.458Z,0.00
2022-11-04T01:45:25.059Z,0.00
2022-11-04T01:46:07.112Z,0.00
2022-11-04T01:46:27.134Z,0.00
2022-11-04T01:47:14.601Z,0.00
2022-11-04T01:47:29.255Z,0.00
2022-11-04T01:47:59.243Z,0.00
2022-11-04T01:48:30.652Z,0.00
2022-11-04T01:49:02.204Z,0.00
2022-11-04T01:49:33.647Z,0.00
2022-11-04T01:50:04.297Z,0.00
2022-11-04T01:50:34.598Z,0.00
2022-11-04T01:51:05.192Z,0.00
2022-11-04T01:51:36.599Z,0.00
2022-11-04T01:52:08.190Z,0.00
2022-11-04T01:52:38.255Z,0.00
2022-11-04T01:53:09.521Z,0.00
2022-11-04T01:53:40.872Z,0.00
2022-11-04T01:54:11.287Z,0.00
2022-11-04T01:54:43.545Z,0.00
2022-11-04T01:55:14.082Z,0.00
2022-11-04T01:55:44.915Z,0.00
2022-11-04T01:56:15.252Z,0.00
2022-11-04T01:57:04.381Z,0.00
2022-11-04T01:57:17.451Z,0.00
2022-11-04T01:57:47.917Z,0.00
2022-11-04T01:58:19.409Z,0.00
2022-11-04T01:59:07.777Z,0.00
2022-11-04T01:59:21.724Z,0.00
2022-11-04T01:59:54.104Z,0.00
2022-11-04T02:01:00.668Z,0.00
2022-11-04T02:02:24.082Z,0.00
2022-11-04T02:02:52.076Z,0.00
2022-11-04T02:03:22.303Z,0.00
2022-11-04T02:03:55.988Z,0.00
2022-11-04T02:04:57.849Z,0.00
2022-11-04T02:05:26.175Z,0.00
2022-11-04T02:06:18.257Z,0.00
2022-11-04T02:06:27.213Z,0.00
2022-11-04T02:06:57.910Z,0.00
2022-11-04T02:07:28.110Z,0.00
2022-11-04T02:07:59.566Z,0.00
2022-11-04T02:10:10.687Z,0.00
2022-11-04T02:10:35.488Z,0.00
2022-11-04T02:11:08.121Z,0.00
2022-11-04T02:11:36.561Z,0.00
2022-11-04T02:12:08.955Z,0.00
2022-11-04T02:12:39.369Z,0.00
2022-11-04T02:13:11.068Z,0.00
2022-11-04T02:13:40.355Z,0.00
2022-11-04T02:14:11.250Z,0.00
2022-11-04T02:14:42.410Z,0.00
2022-11-04T02:15:13.798Z,0.00
2022-11-04T02:15:44.680Z,0.00
2022-11-04T02:16:15.682Z,0.00
2022-11-04T02:16:47.116Z,0.00
2022-11-04T02:17:18.265Z,0.00
2022-11-04T02:17:56.302Z,0.00
2022-11-04T02:18:21.489Z,0.00
2022-11-04T02:18:50.722Z,0.00
2022-11-04T02:19:21.898Z,0.00
2022-11-04T02:19:51.995Z,0.00
2022-11-04T02:20:22.987Z,0.00
2022-11-04T02:20:54.334Z,0.00
2022-11-04T02:21:30.434Z,0.00
2022-11-04T02:21:56.065Z,0.00
2022-11-04T02:22:28.520Z,0.00
2022-11-04T02:22:58.821Z,0.00
2022-11-04T02:23:30.329Z,0.00
2022-11-04T02:24:00.532Z,0.00
2022-11-04T02:24:32.445Z,0.00
2022-11-04T02:25:03.879Z,0.00
2022-11-04T02:25:33.071Z,0.00
2022-11-04T02:26:04.847Z,0.00
2022-11-04T02:26:36.222Z,0.00
2022-11-04T02:27:07.004Z,0.00
2022-11-04T02:27:38.117Z,0.00
2022-11-04T02:28:08.660Z,0.00
2022-11-04T02:28:39.447Z,0.00
2022-11-04T02:29:41.114Z,0.00
2022-11-04T02:30:12.963Z,0.00
2022-11-04T02:30:42.970Z,0.00
2022-11-04T02:31:14.671Z,0.00
2022-11-04T02:31:46.090Z,0.00
2022-11-04T02:32:16.378Z,0.00
2022-11-04T02:33:19.038Z,0.00
2022-11-04T02:33:49.617Z,0.00
2022-11-04T02:34:20.000Z,0.00
2022-11-04T02:34:56.571Z,0.00
2022-11-04T02:35:22.660Z,0.00
2022-11-04T02:36:35.093Z,0.00
2022-11-04T02:36:55.247Z,0.00
2022-11-04T02:37:26.073Z,0.00
2022-11-04T02:37:58.610Z,0.00
2022-11-04T02:38:28.768Z,0.00
2022-11-04T02:38:59.585Z,0.00
2022-11-04T02:39:30.147Z,0.00
2022-11-04T02:40:02.785Z,0.00
2022-11-04T02:40:32.396Z,0.00
2022-11-04T02:41:02.965Z,0.00
2022-11-04T02:41:34.749Z,0.00
2022-11-04T02:42:05.510Z,0.00
2022-11-04T02:42:36.227Z,0.00
2022-11-04T02:43:08.146Z,0.00
2022-11-04T02:43:39.055Z,0.00
2022-11-04T02:44:10.125Z,0.00
2022-11-04T02:44:40.427Z,0.00
2022-11-04T02:45:11.364Z,0.00
2022-11-04T02:45:42.141Z,0.00
2022-11-04T02:46:13.144Z,0.00
2022-11-04T02:46:44.528Z,0.00
2022-11-04T02:47:14.855Z,0.00
2022-11-04T02:47:46.926Z,0.00
2022-11-04T02:48:17.366Z,0.00
2022-11-04T02:48:49.553Z,0.00
2022-11-04T02:49:50.862Z,0.00
2022-11-04T02:50:21.776Z,0.00
2022-11-04T02:50:52.858Z,0.00
2022-11-04T02:51:23.377Z,0.00
2022-11-04T02:51:54.400Z,0.00
2022-11-04T02:52:25.181Z,0.00
2022-11-04T02:52:55.865Z,0.00
2022-11-04T02:53:28.519Z,0.00
2022-11-04T02:53:59.324Z,0.00
2022-11-04T02:54:29.791Z,0.00
2022-11-04T02:55:00.106Z,0.00
2022-11-04T02:55:31.236Z,0.00
2022-11-04T02:56:01.907Z,0.00
2022-11-04T02:56:32.949Z,0.00
2022-11-04T02:57:04.568Z,0.00
2022-11-04T02:57:35.681Z,0.00
2022-11-04T02:58:06.089Z,0.00
2022-11-04T02:58:38.050Z,0.00
2022-11-04T02:59:08.274Z,0.00
2022-11-04T02:59:39.560Z,0.00
2022-11-04T03:00:13.146Z,0.00
2022-11-04T03:00:41.195Z,0.00
2022-11-04T03:01:12.526Z,0.00
2022-11-04T03:01:43.145Z,0.00
2022-11-04T03:02:21.478Z,0.00
2022-11-04T03:02:45.186Z,0.00
2022-11-04T03:03:16.285Z,0.00
2022-11-04T03:03:47.255Z,0.00
2022-11-04T03:04:20.017Z,0.00
2022-11-04T03:04:52.743Z,0.00
2022-11-04T03:05:20.832Z,0.00
2022-11-04T03:05:51.401Z,0.00
2022-11-04T03:06:22.423Z,0.00
2022-11-04T03:06:53.351Z,0.00
2022-11-04T03:07:24.467Z,0.00
2022-11-04T03:07:55.149Z,0.00
2022-11-04T03:08:26.279Z,0.00
2022-11-04T03:08:57.096Z,0.00
2022-11-04T03:09:29.251Z,0.00
2022-11-04T03:10:00.591Z,0.00
2022-11-04T03:10:31.082Z,0.00
2022-11-04T03:11:01.992Z,0.00
2022-11-04T03:11:32.201Z,0.00
2022-11-04T03:12:03.503Z,0.00
2022-11-04T03:12:34.494Z,0.00
2022-11-04T03:13:05.797Z,0.00
2022-11-04T03:13:36.221Z,0.00
2022-11-04T03:14:08.244Z,0.00
2022-11-04T03:14:39.643Z,0.00
2022-11-04T03:15:10.891Z,0.00
2022-11-04T03:15:40.400Z,0.00
2022-11-04T03:16:11.996Z,0.00
2022-11-04T03:16:42.372Z,0.00
2022-11-04T03:17:13.479Z,0.00
2022-11-04T03:17:44.332Z,0.00
2022-11-04T03:18:15.435Z,0.00
2022-11-04T03:18:46.288Z,0.00
2022-11-04T03:19:18.366Z,0.00
2022-11-04T03:19:49.683Z,0.00
2022-11-04T03:20:57.022Z,0.00
2022-11-04T03:21:21.952Z,0.00
2022-11-04T03:21:52.272Z,0.00
2022-11-04T03:22:24.858Z,0.00
2022-11-04T03:23:25.681Z,0.00
2022-11-04T03:23:56.404Z,0.00
2022-11-04T03:24:27.299Z,0.00
2022-11-04T03:25:00.253Z,0.00
2022-11-04T03:25:30.428Z,0.00
2022-11-04T03:26:00.903Z,0.00
2022-11-04T03:26:31.540Z,0.00
2022-11-04T03:27:02.574Z,0.00
2022-11-04T03:27:33.571Z,0.00
2022-11-04T03:28:04.763Z,0.00
2022-11-04T03:28:35.481Z,0.00
2022-11-04T03:29:06.615Z,0.00
2022-11-04T03:29:37.215Z,0.00
2022-11-04T03:30:10.585Z,0.00
2022-11-04T03:30:41.009Z,0.00
2022-11-04T03:31:10.997Z,0.00
2022-11-04T03:31:41.625Z,0.00
2022-11-04T03:32:12.675Z,0.00
2022-11-04T03:32:43.104Z,0.00
2022-11-04T03:33:14.674Z,0.00
2022-11-04T03:33:45.555Z,0.00
2022-11-04T03:34:16.438Z,0.00
2022-11-04T03:34:47.554Z,0.00
2022-11-04T03:35:20.224Z,0.00
2022-11-04T03:35:50.802Z,0.00
2022-11-04T03:36:20.974Z,0.00
2022-11-04T03:36:51.348Z,0.00
2022-11-04T03:37:41.636Z,0.00
2022-11-04T03:37:53.669Z,0.00
2022-11-04T03:38:24.346Z,0.00
2022-11-04T03:38:55.852Z,0.00
2022-11-04T03:39:26.372Z,0.00
2022-11-04T03:39:58.034Z,0.00
2022-11-04T03:40:29.788Z,0.00
2022-11-04T03:41:00.176Z,0.00
2022-11-04T03:41:31.251Z,0.00
2022-11-04T03:42:01.501Z,0.00
2022-11-04T03:42:32.164Z,0.00
2022-11-04T03:43:03.288Z,0.00
2022-11-04T03:43:34.475Z,0.00
2022-11-04T03:44:05.981Z,0.00
2022-11-04T03:44:36.297Z,0.00
2022-11-04T03:45:09.771Z,0.00
2022-11-04T03:45:39.621Z,0.00
2022-11-04T03:46:11.169Z,0.00
2022-11-04T03:46:41.157Z,0.00
2022-11-04T03:47:11.975Z,0.00
2022-11-04T03:47:42.414Z,0.00
2022-11-04T03:48:13.438Z,0.00
2022-11-04T03:48:44.657Z,0.00
2022-11-04T03:49:15.708Z,0.00
2022-11-04T03:50:18.562Z,0.00
2022-11-04T03:50:50.547Z,0.00
2022-11-04T03:51:20.451Z,0.00
2022-11-04T03:51:50.788Z,0.00
2022-11-04T03:52:21.611Z,0.00
2022-11-04T03:52:53.086Z,0.00
2022-11-04T03:53:23.537Z,0.00
2022-11-04T03:53:56.597Z,0.00
2022-11-04T03:54:25.771Z,0.00
2022-11-04T03:54:56.190Z,0.00
2022-11-04T03:55:27.569Z,0.00
2022-11-04T03:56:16.302Z,0.00
2022-11-04T03:56:31.049Z,0.00
2022-11-04T03:57:01.583Z,0.00
2022-11-04T03:57:31.598Z,0.00
2022-11-04T03:58:02.550Z,0.00
2022-11-04T03:58:33.518Z,0.00
2022-11-04T03:59:04.937Z,0.00
2022-11-04T03:59:36.191Z,0.00
2022-11-04T04:00:07.804Z,0.00
2022-11-04T04:00:37.580Z,0.00
2022-11-04T04:01:26.142Z,0.00
2022-11-04T04:01:41.164Z,0.00
2022-11-04T04:02:12.017Z,0.00
2022-11-04T04:02:43.090Z,0.00
2022-11-04T04:03:13.216Z,0.00
2022-11-04T04:03:43.526Z,0.00
2022-11-04T04:04:32.188Z,0.00
2022-11-04T04:04:46.443Z,0.00
2022-11-04T04:05:18.905Z,0.00
2022-11-04T04:06:19.301Z,0.00
2022-11-04T04:06:51.323Z,0.00
2022-11-04T04:07:21.443Z,0.00
2022-11-04T04:07:52.048Z,0.00
2022-11-04T04:08:22.728Z,0.00
2022-11-04T04:08:53.301Z,0.00
2022-11-04T04:09:24.747Z,0.00
2022-11-04T04:09:55.909Z,0.00
2022-11-04T04:10:26.747Z,0.00
2022-11-04T04:10:57.545Z,0.00
2022-11-04T04:11:28.459Z,0.00
2022-11-04T04:12:01.071Z,0.00
2022-11-04T04:12:31.594Z,0.00
2022-11-04T04:13:02.124Z,0.00
2022-11-04T04:13:32.787Z,0.00
2022-11-04T04:14:35.069Z,0.00
2022-11-04T04:15:06.588Z,0.00
2022-11-04T04:15:36.595Z,0.00
2022-11-04T04:16:07.369Z,0.00
2022-11-04T04:16:39.334Z,0.00
2022-11-04T04:17:11.209Z,0.00
2022-11-04T04:17:41.513Z,0.00
2022-11-04T04:18:12.306Z,0.00
2022-11-04T04:18:42.593Z,0.00
2022-11-04T04:19:13.634Z,0.00
2022-11-04T04:19:44.938Z,0.00
2022-11-04T04:20:15.871Z,0.00
2022-11-04T04:20:46.661Z,0.00
2022-11-04T04:21:17.588Z,0.00
2022-11-04T04:21:49.685Z,0.00
2022-11-04T04:22:21.394Z,0.00
2022-11-04T04:22:52.514Z,0.00
2022-11-04T04:23:21.807Z,0.00
2022-11-04T04:23:52.851Z,0.00
2022-11-04T04:24:24.234Z,0.00
2022-11-04T04:24:55.516Z,0.00
2022-11-04T04:25:26.216Z,0.00
2022-11-04T04:25:56.682Z,0.00
2022-11-04T04:26:27.417Z,0.00
2022-11-04T04:26:59.383Z,0.00
2022-11-04T04:27:31.290Z,0.00
2022-11-04T04:28:02.008Z,0.00
2022-11-04T04:28:32.059Z,0.00
2022-11-04T04:29:02.652Z,0.00
2022-11-04T04:29:33.406Z,0.00
2022-11-04T04:30:04.769Z,0.00
2022-11-04T04:30:36.127Z,0.00
2022-11-04T04:31:24.179Z,0.00
2022-11-04T04:31:37.611Z,0.00
2022-11-04T04:32:09.971Z,0.00
2022-11-04T04:32:41.081Z,0.00
2022-11-04T04:33:12.063Z,0.00
2022-11-04T04:33:41.959Z,0.00
2022-11-04T04:34:12.540Z,0.00
2022-11-04T04:34:44.245Z,0.00
2022-11-04T04:35:15.173Z,0.00
2022-11-04T04:35:45.837Z,0.00
2022-11-04T04:36:16.744Z,0.00
2022-11-04T04:36:47.497Z,0.00
2022-11-04T04:37:18.746Z,0.00
2022-11-04T04:37:50.918Z,0.00
2022-11-04T04:38:21.357Z,0.00
2022-11-04T04:38:52.255Z,0.00
2022-11-04T04:39:23.379Z,0.00
2022-11-04T04:39:53.608Z,0.00
2022-11-04T04:40:25.181Z,0.00
2022-11-04T04:40:55.695Z,0.00
2022-11-04T04:41:26.522Z,0.00
2022-11-04T04:41:57.649Z,0.00
2022-11-04T04:42:28.698Z,0.00
2022-11-04T04:43:01.128Z,0.00
2022-11-04T04:43:31.783Z,0.00
2022-11-04T04:44:02.172Z,0.00
2022-11-04T04:44:32.738Z,0.00
2022-11-04T04:45:04.143Z,0.00
2022-11-04T04:45:35.020Z,0.00
2022-11-04T04:46:05.783Z,0.00
2022-11-04T04:46:36.830Z,0.00
2022-11-04T04:47:07.694Z,0.00
2022-11-04T04:47:55.815Z,0.00
2022-11-04T04:48:12.382Z,0.00
2022-11-04T04:48:41.450Z,0.00
2022-11-04T04:49:11.862Z,0.00
2022-11-04T04:49:42.433Z,0.00
2022-11-04T04:50:14.209Z,0.00
2022-11-04T04:50:44.775Z,0.00
2022-11-04T04:51:15.727Z,0.00
2022-11-04T04:51:46.451Z,0.00
2022-11-04T04:52:17.674Z,0.00
2022-11-04T04:52:48.687Z,0.00
2022-11-04T04:53:21.085Z,0.00
2022-11-04T04:53:52.155Z,0.00
2022-11-04T04:54:52.705Z,0.00
2022-11-04T04:55:23.735Z,0.00
2022-11-04T04:55:55.744Z,0.00
2022-11-04T04:56:26.086Z,0.00
2022-11-04T04:56:57.559Z,0.00
2022-11-04T04:57:27.665Z,0.00
2022-11-04T04:57:58.416Z,0.00
2022-11-04T04:58:31.599Z,0.00
2022-11-04T04:59:02.299Z,0.00
2022-11-04T04:59:32.393Z,0.00
2022-11-04T05:00:03.131Z,0.00
2022-11-04T05:00:33.937Z,0.00
2022-11-04T05:01:05.057Z,0.00
2022-11-04T05:01:35.985Z,0.00
2022-11-04T05:02:07.806Z,0.00
2022-11-04T05:02:38.397Z,0.00
2022-11-04T05:03:09.148Z,0.00
2022-11-04T05:03:44.826Z,0.00
2022-11-04T05:04:11.181Z,0.00
2022-11-04T05:04:42.011Z,0.00
2022-11-04T05:05:12.768Z,0.00
2022-11-04T05:05:43.659Z,0.00
2022-11-04T05:06:14.878Z,0.00
2022-11-04T05:06:47.566Z,0.00
2022-11-04T05:07:18.088Z,0.00
2022-11-04T05:07:48.454Z,0.00
2022-11-04T05:08:18.812Z,0.00
2022-11-04T05:08:49.859Z,0.00
2022-11-04T05:09:20.958Z,0.00
2022-11-04T05:09:51.882Z,0.00
2022-11-04T05:10:22.959Z,0.00
2022-11-04T05:10:53.709Z,0.00
2022-11-04T05:11:27.265Z,0.00
2022-11-04T05:11:56.581Z,0.00
2022-11-04T05:12:28.288Z,0.00
2022-11-04T05:12:58.621Z,0.00
2022-11-04T05:13:28.750Z,0.00
2022-11-04T05:13:59.837Z,0.00
2022-11-04T05:14:30.880Z,0.00
2022-11-04T05:15:02.892Z,0.00
2022-11-04T05:15:32.801Z,0.00
2022-11-04T05:16:04.056Z,0.00
2022-11-04T05:16:40.369Z,0.00
2022-11-04T05:17:08.141Z,0.00
2022-11-04T05:17:38.247Z,0.00
2022-11-04T05:18:08.437Z,0.00
2022-11-04T05:18:39.122Z,0.00
2022-11-04T05:19:09.837Z,0.00
2022-11-04T05:19:40.962Z,0.00
2022-11-04T05:20:12.275Z,0.00
2022-11-04T05:20:42.911Z,0.00
2022-11-04T05:21:30.972Z,0.00
2022-11-04T05:21:45.000Z,0.00
2022-11-04T05:22:16.704Z,0.00
2022-11-04T05:22:47.976Z,0.00
2022-11-04T05:23:18.644Z,0.00
2022-11-04T05:23:48.890Z,0.00
2022-11-04T05:24:19.939Z,0.00
2022-11-04T05:24:50.795Z,0.00
2022-11-04T05:25:21.704Z,0.00
2022-11-04T05:25:53.025Z,0.00
2022-11-04T05:26:23.890Z,0.00
2022-11-04T05:26:55.461Z,0.00
2022-11-04T05:27:27.663Z,0.00
2022-11-04T05:27:58.364Z,0.00
2022-11-04T05:28:28.591Z,0.00
2022-11-04T05:28:58.885Z,0.00
2022-11-04T05:29:30.067Z,0.00
2022-11-04T05:30:01.701Z,0.00
2022-11-04T05:30:32.131Z,0.00
2022-11-04T05:31:02.914Z,0.00
2022-11-04T05:31:34.124Z,0.00
2022-11-04T05:32:05.595Z,0.00
2022-11-04T05:32:36.460Z,0.00
2022-11-04T05:33:08.482Z,0.00
2022-11-04T05:33:38.443Z,0.00
2022-11-04T05:34:08.941Z,0.00
2022-11-04T05:34:40.174Z,0.00
2022-11-04T05:35:10.940Z,0.00
2022-11-04T05:35:41.939Z,0.00
2022-11-04T05:36:12.999Z,0.00
2022-11-04T05:36:43.776Z,0.00
2022-11-04T05:37:14.769Z,0.00
2022-11-04T05:37:46.807Z,0.00
2022-11-04T05:38:17.875Z,0.00
2022-11-04T05:38:48.350Z,0.00
2022-11-04T05:39:19.166Z,0.00
2022-11-04T05:40:21.521Z,0.00
2022-11-04T05:40:51.828Z,0.00
2022-11-04T05:41:22.900Z,0.00
2022-11-04T05:41:54.105Z,0.00
2022-11-04T05:42:25.367Z,0.00
2022-11-04T05:42:56.710Z,0.00
2022-11-04T05:43:27.998Z,0.00
2022-11-04T05:43:58.791Z,0.00
2022-11-04T05:44:28.808Z,0.00
2022-11-04T05:45:00.044Z,0.00
2022-11-04T05:45:31.611Z,0.00
2022-11-04T05:46:02.376Z,0.00
2022-11-04T05:46:32.705Z,0.00
2022-11-04T05:47:04.277Z,0.00
2022-11-04T05:47:35.455Z,0.00
2022-11-04T05:48:06.907Z,0.00
2022-11-04T05:48:40.683Z,0.00
2022-11-04T05:49:08.651Z,0.00
2022-11-04T05:49:39.114Z,0.00
2022-11-04T05:50:11.096Z,0.00
2022-11-04T05:50:40.867Z,0.00
2022-11-04T05:51:12.009Z,0.00
2022-11-04T05:51:42.737Z,0.00
2022-11-04T05:52:14.146Z,0.00
2022-11-04T05:52:45.202Z,0.00
2022-11-04T05:53:17.788Z,0.00
2022-11-04T05:53:48.233Z,0.00
2022-11-04T05:54:54.544Z,0.00
2022-11-04T05:55:20.008Z,0.00
2022-11-04T05:55:51.030Z,0.00
2022-11-04T05:56:22.323Z,0.00
2022-11-04T05:56:53.158Z,0.00
2022-11-04T05:57:24.294Z,0.00
2022-11-04T05:57:55.045Z,0.00
2022-11-04T05:58:27.392Z,0.00
2022-11-04T05:58:58.256Z,0.00
2022-11-04T05:59:28.598Z,0.00
2022-11-04T05:59:59.790Z,0.00
2022-11-04T06:00:30.318Z,0.00
2022-11-04T06:01:02.175Z,0.00
2022-11-04T06:01:32.067Z,0.00
2022-11-04T06:02:03.477Z,0.00
2022-11-04T06:02:34.492Z,0.00
2022-11-04T06:03:06.089Z,0.00
2022-11-04T06:03:37.708Z,0.00
2022-11-04T06:04:08.244Z,0.00
2022-11-04T06:04:52.810Z,0.00
2022-11-04T06:05:28.526Z,0.00
2022-11-04T06:05:39.707Z,0.00
2022-11-04T06:06:10.790Z,0.00
2022-11-04T06:06:59.152Z,0.00
2022-11-04T06:07:13.078Z,0.00
2022-11-04T06:07:47.800Z,0.00
2022-11-04T06:08:16.415Z,0.00
2022-11-04T06:08:47.012Z,0.00
2022-11-04T06:09:18.105Z,0.00
2022-11-04T06:09:49.214Z,0.00
2022-11-04T06:10:21.753Z,0.00
2022-11-04T06:10:50.055Z,0.00
2022-11-04T06:11:20.919Z,0.00
2022-11-04T06:11:52.353Z,0.00
2022-11-04T06:12:27.875Z,0.00
2022-11-04T06:12:54.035Z,0.00
2022-11-04T06:13:29.267Z,0.00
2022-11-04T06:14:07.079Z,0.00
2022-11-04T06:14:28.386Z,0.00
2022-11-04T06:15:02.247Z,0.00
2022-11-04T06:15:47.035Z,0.00
2022-11-04T06:16:00.415Z,0.00
2022-11-04T06:16:30.847Z,0.00
2022-11-04T06:17:02.320Z,0.00
2022-11-04T06:17:33.432Z,0.00
2022-11-04T06:18:04.184Z,0.00
2022-11-04T06:18:35.158Z,0.00
2022-11-04T06:19:09.606Z,0.00
2022-11-04T06:19:38.972Z,0.00
2022-11-04T06:20:12.344Z,0.00
2022-11-04T06:20:40.099Z,0.36
2022-11-04T06:21:09.933Z,0.85
2022-11-04T06:21:41.084Z,0.36
2022-11-04T06:22:11.942Z,0.85
2022-11-04T06:23:14.394Z,1.22
2022-11-04T06:23:45.147Z,1.71
2022-11-04T06:24:17.332Z,0.85
2022-11-04T06:24:48.792Z,1.22
2022-11-04T06:25:22.915Z,1.71
2022-11-04T06:25:49.160Z,2.08
2022-11-04T06:26:25.161Z,2.94
2022-11-04T06:26:50.944Z,3.43
2022-11-04T06:27:22.113Z,2.94
2022-11-04T06:28:10.808Z,3.43
2022-11-04T06:28:24.271Z,3.43
2022-11-04T06:28:55.549Z,3.43
2022-11-04T06:29:26.288Z,4.28
2022-11-04T06:29:58.219Z,4.28
2022-11-04T06:30:59.996Z,4.77
2022-11-04T06:31:30.999Z,5.14
2022-11-04T06:32:01.424Z,4.77
2022-11-04T06:32:32.292Z,5.14
2022-11-04T06:33:03.079Z,5.63
2022-11-04T06:33:37.025Z,5.99
2022-11-04T06:34:05.354Z,5.99
2022-11-04T06:34:38.174Z,6.85
2022-11-04T06:35:09.488Z,8.19
2022-11-04T06:35:39.134Z,7.34
2022-11-04T06:36:09.786Z,8.19
2022-11-04T06:36:40.540Z,7.70
2022-11-04T06:37:11.314Z,8.56
2022-11-04T06:37:42.151Z,9.54
2022-11-04T06:38:13.292Z,9.05
2022-11-04T06:38:44.161Z,9.91
2022-11-04T06:39:15.222Z,9.54
2022-11-04T06:39:46.473Z,9.54
2022-11-04T06:40:19.675Z,10.39
2022-11-04T06:40:49.411Z,10.77
2022-11-04T06:41:19.600Z,10.77
2022-11-04T06:41:51.724Z,10.77
2022-11-04T06:42:21.227Z,11.62
2022-11-04T06:42:52.446Z,11.25
2022-11-04T06:43:23.093Z,11.62
2022-11-04T06:43:54.357Z,12.11
2022-11-04T06:44:25.463Z,12.48
2022-11-04T06:44:57.191Z,12.48
2022-11-04T06:45:29.250Z,12.11
2022-11-04T06:45:59.233Z,12.11
2022-11-04T06:46:29.580Z,12.11
2022-11-04T06:47:00.584Z,11.25
2022-11-04T06:47:31.514Z,12.11
2022-11-04T06:48:02.729Z,12.11
2022-11-04T06:48:33.235Z,11.25
2022-11-04T06:49:04.368Z,11.62
2022-11-04T06:49:35.397Z,11.25
2022-11-04T06:50:08.410Z,12.11
2022-11-04T06:50:38.406Z,11.25
2022-11-04T06:51:09.236Z,12.11
2022-11-04T06:51:40.444Z,12.11
2022-11-04T06:52:10.190Z,12.48
2022-11-04T06:52:42.644Z,12.48
2022-11-04T06:53:12.116Z,12.48
2022-11-04T06:53:43.012Z,12.97
2022-11-04T06:54:14.470Z,13.33
2022-11-04T06:54:45.572Z,13.82
2022-11-04T06:55:47.982Z,14.68
2022-11-04T06:56:20.689Z,15.17
2022-11-04T06:56:49.865Z,15.53
2022-11-04T06:57:20.340Z,16.39
2022-11-04T06:57:51.246Z,16.88
2022-11-04T06:58:22.426Z,16.88
2022-11-04T06:58:53.529Z,17.73
2022-11-04T06:59:24.408Z,17.73
2022-11-04T06:59:56.101Z,17.73
2022-11-04T07:00:28.093Z,18.60
2022-11-04T07:00:58.495Z,19.08
2022-11-04T07:01:29.961Z,18.11
2022-11-04T07:02:00.690Z,18.60
2022-11-04T07:02:30.782Z,18.60
2022-11-04T07:03:03.056Z,18.11
2022-11-04T07:03:32.321Z,19.08
2022-11-04T07:04:03.469Z,18.60
2022-11-04T07:04:34.495Z,17.73
2022-11-04T07:05:05.593Z,18.11
2022-11-04T07:05:36.719Z,17.73
2022-11-04T07:06:08.864Z,17.73
2022-11-04T07:06:42.753Z,17.73
2022-11-04T07:07:09.960Z,17.25
2022-11-04T07:07:40.863Z,17.73
2022-11-04T07:08:12.254Z,17.73
2022-11-04T07:08:42.396Z,17.73
2022-11-04T07:09:13.628Z,17.25